Angus, Minnesota
Current Conditions -  °F | °C
As of 1:54 PM on Saturday 25 Oct 2014 (Local Time) from KCKN Reporting Station
Clear Clear  
Wind Chill: 57°   Ceiling: Unl
Heat Index: 57°   Visibility: 10mi
Dew Point: 28°   Wind: 20mph
Humidity: 33%   Direction: 330°NNW
Pressure: 30.06"   Gusts: 25mph
Location:  48.08°N, 96.7°W
Report Text: KCKN 251854Z AUTO 33017G22KT 10SM CLR 14/M02 A3006 RMK AO2
Loading
Personal Weather Stations






























Interactive Weather Map New forecast layout! Learn more

10-Day Weather Forecast

Advertisements
Track Severe Weather on mobile